createdAt,value
2023-03-28T00:00:45.901Z,1.66
2023-03-28T00:03:14.626Z,1.63
2023-03-28T00:05:42.753Z,1.56
2023-03-28T00:08:11.916Z,1.50
2023-03-28T00:10:39.800Z,1.58
2023-03-28T00:13:07.984Z,1.62
2023-03-28T00:15:37.808Z,1.62
2023-03-28T00:18:08.305Z,1.73
2023-03-28T00:20:39.141Z,1.69
2023-03-28T00:23:08.211Z,1.70
2023-03-28T00:25:36.505Z,1.69
2023-03-28T00:28:04.831Z,1.59
2023-03-28T00:30:32.768Z,1.62
2023-03-28T00:33:00.875Z,1.56
2023-03-28T00:35:30.290Z,1.54
2023-03-28T00:37:58.812Z,1.62
2023-03-28T00:40:26.949Z,1.48
2023-03-28T00:42:54.921Z,1.52
2023-03-28T00:45:23.680Z,1.50
2023-03-28T00:47:52.694Z,1.48
2023-03-28T00:50:23.600Z,1.53
2023-03-28T00:52:54.770Z,1.37
2023-03-28T00:55:24.930Z,1.34
2023-03-28T00:57:53.152Z,1.32
2023-03-28T01:00:21.337Z,1.40
2023-03-28T01:02:51.370Z,1.44
2023-03-28T01:05:20.164Z,1.39
2023-03-28T01:07:49.627Z,1.37
2023-03-28T01:10:19.633Z,1.36
2023-03-28T01:12:47.617Z,1.40
2023-03-28T01:15:15.759Z,1.46
2023-03-28T01:17:46.359Z,1.28
2023-03-28T01:20:26.717Z,1.33
2023-03-28T01:23:38.796Z,1.37
2023-03-28T01:26:45.151Z,1.33
2023-03-28T01:29:40.385Z,1.33
2023-03-28T01:32:46.374Z,1.33
2023-03-28T01:35:33.105Z,1.32
2023-03-28T01:38:03.549Z,1.31
2023-03-28T01:40:36.871Z,1.27
2023-03-28T01:43:11.084Z,1.32
2023-03-28T01:45:43.082Z,1.28
2023-03-28T01:48:16.015Z,1.29
2023-03-28T01:50:45.698Z,1.21
2023-03-28T01:53:18.093Z,1.19
2023-03-28T01:55:49.453Z,1.28
2023-03-28T01:58:19.308Z,1.17
2023-03-28T02:00:48.774Z,1.24
2023-03-28T02:03:18.909Z,1.29
2023-03-28T02:05:47.069Z,1.14
2023-03-28T02:08:17.467Z,1.09
2023-03-28T02:10:45.602Z,1.21
2023-03-28T02:13:15.821Z,1.22
2023-03-28T02:15:44.212Z,1.21
2023-03-28T02:18:15.118Z,1.16
2023-03-28T02:20:43.019Z,1.12
2023-03-28T02:23:12.423Z,1.13
2023-03-28T02:25:42.491Z,1.25
2023-03-28T02:28:10.738Z,1.23
2023-03-28T02:30:38.684Z,1.18
2023-03-28T02:33:08.729Z,1.23
2023-03-28T02:35:42.573Z,1.35
2023-03-28T02:38:13.646Z,1.31
2023-03-28T02:40:48.307Z,1.31
2023-03-28T02:43:28.806Z,1.28
2023-03-28T02:46:10.345Z,1.34
2023-03-28T02:48:56.474Z,1.35
2023-03-28T02:51:30.468Z,1.21
2023-03-28T02:54:01.797Z,1.22
2023-03-28T02:56:37.185Z,1.16
2023-03-28T02:59:07.253Z,1.16
2023-03-28T03:01:36.895Z,1.01
2023-03-28T03:04:05.517Z,1.06
2023-03-28T03:06:35.237Z,1.11
2023-03-28T03:09:04.771Z,1.15
2023-03-28T03:11:34.078Z,1.00
2023-03-28T03:14:03.351Z,1.03
2023-03-28T03:16:31.326Z,0.82
2023-03-28T03:19:00.264Z,0.81
2023-03-28T03:21:28.252Z,0.69
2023-03-28T03:23:56.162Z,0.72
2023-03-28T03:26:24.100Z,0.68
2023-03-28T03:28:53.371Z,0.60
2023-03-28T03:31:21.595Z,0.60
2023-03-28T03:33:49.816Z,0.61
2023-03-28T03:36:18.915Z,0.58
2023-03-28T03:38:47.613Z,0.58
2023-03-28T03:41:15.608Z,0.67
2023-03-28T03:43:44.716Z,0.63
2023-03-28T03:46:15.549Z,0.61
2023-03-28T03:48:49.150Z,0.71
2023-03-28T03:51:18.252Z,0.75
2023-03-28T03:53:46.722Z,0.68
2023-03-28T03:56:15.055Z,0.59
2023-03-28T03:58:43.104Z,0.54
2023-03-28T04:01:14.049Z,0.47
2023-03-28T04:03:43.809Z,0.47
2023-03-28T04:06:15.308Z,0.49
2023-03-28T04:08:43.284Z,0.37
2023-03-28T04:11:11.560Z,0.44
2023-03-28T04:13:39.510Z,0.49
2023-03-28T04:16:08.423Z,0.56
2023-03-28T04:18:36.901Z,0.61
2023-03-28T04:21:09.741Z,0.61
2023-03-28T04:23:38.744Z,0.53
2023-03-28T04:26:08.788Z,0.55
2023-03-28T04:28:36.763Z,0.53
2023-03-28T04:31:04.792Z,0.57
2023-03-28T04:33:33.854Z,0.49
2023-03-28T04:36:02.425Z,0.54
2023-03-28T04:38:36.470Z,0.53
2023-03-28T04:41:05.349Z,0.48
2023-03-28T04:43:33.489Z,0.46
2023-03-28T04:46:01.882Z,0.50
2023-03-28T04:48:30.045Z,0.47
2023-03-28T04:50:58.084Z,0.38
2023-03-28T04:53:26.296Z,0.34
2023-03-28T04:55:55.609Z,0.19
2023-03-28T04:58:24.169Z,0.40
2023-03-28T05:00:52.442Z,0.38
2023-03-28T05:03:21.495Z,0.43
2023-03-28T05:05:50.051Z,0.42
2023-03-28T05:08:18.749Z,0.35
2023-03-28T05:10:46.789Z,0.33
2023-03-28T05:13:16.242Z,0.26
2023-03-28T05:15:44.522Z,0.34
2023-03-28T05:18:12.501Z,0.31
2023-03-28T05:20:40.859Z,0.30
2023-03-28T05:23:12.098Z,0.37
2023-03-28T05:25:39.984Z,0.40
2023-03-28T05:28:08.072Z,0.35
2023-03-28T05:30:37.726Z,0.32
2023-03-28T05:33:05.641Z,0.24
2023-03-28T05:35:33.650Z,0.27
2023-03-28T05:38:02.556Z,0.28
2023-03-28T05:40:30.584Z,0.43
2023-03-28T05:43:07.329Z,0.41
2023-03-28T05:45:41.879Z,0.32
2023-03-28T05:48:09.817Z,0.29
2023-03-28T05:50:38.081Z,0.34
2023-03-28T05:53:06.732Z,0.49
2023-03-28T05:55:35.902Z,0.45
2023-03-28T05:58:04.209Z,0.45
2023-03-28T06:00:33.011Z,0.51
2023-03-28T06:03:02.806Z,0.57
2023-03-28T06:05:31.235Z,0.59
2023-03-28T06:07:59.291Z,0.59
2023-03-28T06:10:27.239Z,0.61
2023-03-28T06:12:55.393Z,0.70
2023-03-28T06:15:23.511Z,0.79
2023-03-28T06:17:51.494Z,0.85
2023-03-28T06:20:20.957Z,0.85
2023-03-28T06:22:49.765Z,0.87
2023-03-28T06:25:17.792Z,0.92
2023-03-28T06:27:45.809Z,0.96
2023-03-28T06:30:15.043Z,1.06
2023-03-28T06:32:43.372Z,1.16
2023-03-28T06:35:11.819Z,1.12
2023-03-28T06:37:41.319Z,1.30
2023-03-28T06:40:10.136Z,1.30
2023-03-28T06:42:38.098Z,1.31
2023-03-28T06:45:06.590Z,1.48
2023-03-28T06:47:34.519Z,1.52
2023-03-28T06:50:02.572Z,1.60
2023-03-28T06:52:30.748Z,1.64
2023-03-28T06:55:00.449Z,1.82
2023-03-28T06:57:29.184Z,1.93
2023-03-28T06:59:57.176Z,2.09
2023-03-28T07:02:25.195Z,2.28
2023-03-28T07:04:53.429Z,2.33
2023-03-28T07:07:22.290Z,2.45
2023-03-28T07:09:51.947Z,2.51
2023-03-28T07:12:21.232Z,2.48
2023-03-28T07:14:49.376Z,2.45
2023-03-28T07:17:17.284Z,2.61
2023-03-28T07:19:46.126Z,2.64
2023-03-28T07:22:14.055Z,2.61
2023-03-28T07:24:42.181Z,2.62
2023-03-28T07:27:16.622Z,2.82
2023-03-28T07:29:48.342Z,2.86
2023-03-28T07:32:16.817Z,2.93
2023-03-28T07:34:49.512Z,3.02
2023-03-28T07:37:17.905Z,2.85
2023-03-28T07:39:45.877Z,2.93
2023-03-28T07:42:16.801Z,3.01
2023-03-28T07:44:48.609Z,3.16
2023-03-28T07:47:18.793Z,3.19
2023-03-28T07:49:47.325Z,3.08
2023-03-28T07:52:15.257Z,3.08
2023-03-28T07:54:43.776Z,3.16
2023-03-28T07:57:12.066Z,3.47
2023-03-28T07:59:40.260Z,3.34
2023-03-28T08:02:24.692Z,3.64
2023-03-28T08:05:11.645Z,3.36
2023-03-28T08:07:42.149Z,3.44
2023-03-28T08:10:10.626Z,3.71
2023-03-28T08:12:42.176Z,3.75
2023-03-28T08:15:11.409Z,3.82
2023-03-28T08:17:40.809Z,3.86
2023-03-28T08:20:11.875Z,4.08
2023-03-28T08:22:39.788Z,4.05
2023-03-28T08:25:09.365Z,4.37
2023-03-28T08:28:22.410Z,4.56
2023-03-28T08:30:52.095Z,4.35
2023-03-28T08:33:21.547Z,4.46
2023-03-28T08:35:51.017Z,4.41
2023-03-28T08:38:19.639Z,4.74
2023-03-28T08:40:51.099Z,4.86
2023-03-28T08:43:40.262Z,4.87
2023-03-28T08:46:09.821Z,5.00
2023-03-28T08:48:41.329Z,4.99
2023-03-28T08:51:14.589Z,5.17
2023-03-28T08:53:43.942Z,5.36
2023-03-28T08:56:14.653Z,5.35
2023-03-28T08:58:48.096Z,5.44
2023-03-28T09:01:16.537Z,5.48
2023-03-28T09:03:46.081Z,5.76
2023-03-28T09:06:20.989Z,5.85
2023-03-28T09:09:06.171Z,6.02
2023-03-28T09:11:43.908Z,6.00
2023-03-28T09:14:32.494Z,6.17
2023-03-28T09:17:04.641Z,6.04
2023-03-28T09:19:48.499Z,6.07
2023-03-28T09:22:23.424Z,6.15
2023-03-28T09:25:18.777Z,6.00
2023-03-28T09:27:51.857Z,6.02
2023-03-28T09:30:20.787Z,6.18
2023-03-28T09:32:49.601Z,6.46
2023-03-28T09:35:20.360Z,6.41
2023-03-28T09:37:49.794Z,6.49
2023-03-28T09:40:20.882Z,6.54
2023-03-28T09:42:53.332Z,6.36
2023-03-28T09:45:30.708Z,6.58
2023-03-28T09:47:58.759Z,6.48
2023-03-28T09:50:28.521Z,6.54
2023-03-28T09:52:57.653Z,6.60
2023-03-28T09:55:27.618Z,6.53
2023-03-28T09:58:07.487Z,6.59
2023-03-28T10:00:36.688Z,6.79
2023-03-28T10:03:05.081Z,6.91
2023-03-28T10:05:36.830Z,6.72
2023-03-28T10:08:05.822Z,6.91
2023-03-28T10:10:35.195Z,7.05
2023-03-28T10:13:04.377Z,7.10
2023-03-28T10:15:34.463Z,6.99
2023-03-28T10:18:03.112Z,6.96
2023-03-28T10:20:32.169Z,7.16
2023-03-28T10:23:03.327Z,7.02
2023-03-28T10:25:37.646Z,7.16
2023-03-28T10:28:06.347Z,6.95
2023-03-28T10:30:34.715Z,7.37
2023-03-28T10:33:11.364Z,7.00
2023-03-28T10:35:41.665Z,7.51
2023-03-28T10:38:15.664Z,7.70
2023-03-28T10:40:44.135Z,7.66
2023-03-28T10:43:13.506Z,7.80
2023-03-28T10:45:42.800Z,7.74
2023-03-28T10:48:12.886Z,7.55
2023-03-28T10:50:43.236Z,7.54
2023-03-28T10:53:24.926Z,7.46
2023-03-28T10:56:01.521Z,7.50
2023-03-28T10:58:31.982Z,7.30
2023-03-28T11:01:02.815Z,7.42
2023-03-28T11:03:37.609Z,7.46
2023-03-28T11:06:10.166Z,7.58
2023-03-28T11:08:46.177Z,7.51
2023-03-28T11:11:22.494Z,7.47
2023-03-28T11:13:53.569Z,7.68
2023-03-28T11:16:25.339Z,7.55
2023-03-28T11:19:02.803Z,7.48
2023-03-28T11:21:33.047Z,7.64
2023-03-28T11:24:10.781Z,7.89
2023-03-28T11:26:42.165Z,7.81
2023-03-28T11:29:17.035Z,8.10
2023-03-28T11:31:47.110Z,7.96
2023-03-28T11:34:16.014Z,7.98
2023-03-28T11:36:47.730Z,8.03
2023-03-28T11:39:20.655Z,7.92
2023-03-28T11:41:48.930Z,7.99
2023-03-28T11:44:18.727Z,8.00
2023-03-28T11:46:48.425Z,7.92
2023-03-28T11:49:19.542Z,7.84
2023-03-28T11:51:51.766Z,8.28
2023-03-28T11:54:22.322Z,8.15
2023-03-28T11:56:54.436Z,8.14
2023-03-28T11:59:27.201Z,8.05
2023-03-28T12:02:02.613Z,8.61
2023-03-28T12:04:32.783Z,8.46
2023-03-28T12:07:08.118Z,8.45
2023-03-28T12:09:39.007Z,8.56
2023-03-28T12:12:09.926Z,8.63
2023-03-28T12:14:42.829Z,8.74
2023-03-28T12:17:17.191Z,8.56
2023-03-28T12:19:48.492Z,8.38
2023-03-28T12:22:21.398Z,8.43
2023-03-28T12:24:56.844Z,8.34
2023-03-28T12:27:33.739Z,8.47
2023-03-28T12:30:06.006Z,8.69
2023-03-28T12:32:41.642Z,8.84
2023-03-28T12:35:16.304Z,8.58
2023-03-28T12:37:48.546Z,8.72
2023-03-28T12:40:23.691Z,8.41
2023-03-28T12:42:52.100Z,8.49
2023-03-28T12:45:21.131Z,8.43
2023-03-28T12:47:50.879Z,8.72
2023-03-28T12:50:20.141Z,8.72
2023-03-28T12:52:48.036Z,8.72
2023-03-28T12:55:44.593Z,8.75
2023-03-28T12:58:14.120Z,8.89
2023-03-28T13:00:49.004Z,9.19
2023-03-28T13:03:22.523Z,9.41
2023-03-28T13:05:59.942Z,9.34
2023-03-28T13:08:39.295Z,9.42
2023-03-28T13:11:10.225Z,9.32
2023-03-28T13:13:43.723Z,9.32
2023-03-28T13:16:15.249Z,9.37
2023-03-28T13:18:47.704Z,9.23
2023-03-28T13:21:38.362Z,9.32
2023-03-28T13:24:08.256Z,9.32
2023-03-28T13:27:01.115Z,9.22
2023-03-28T13:29:48.096Z,9.38
2023-03-28T13:32:16.972Z,9.41
2023-03-28T13:34:55.034Z,9.46
2023-03-28T13:37:24.112Z,9.46
2023-03-28T13:39:58.355Z,9.36
2023-03-28T13:42:29.472Z,9.51
2023-03-28T13:44:58.504Z,9.84
2023-03-28T13:47:30.676Z,9.28
2023-03-28T13:50:02.393Z,9.23
2023-03-28T13:52:30.930Z,9.35
2023-03-28T13:55:05.056Z,9.56
2023-03-28T13:57:40.882Z,9.67
2023-03-28T14:00:13.410Z,9.55
2023-03-28T14:02:44.634Z,9.73
2023-03-28T14:05:15.487Z,9.60
2023-03-28T14:07:43.510Z,9.87
2023-03-28T14:10:22.257Z,9.36
2023-03-28T14:12:53.204Z,9.58
2023-03-28T14:15:23.480Z,9.82
2023-03-28T14:17:51.467Z,9.70
2023-03-28T14:20:19.547Z,9.93
2023-03-28T14:22:59.848Z,10.09
2023-03-28T14:25:29.578Z,10.07
2023-03-28T14:28:09.703Z,9.76
2023-03-28T14:30:45.101Z,9.71
2023-03-28T14:33:36.272Z,9.61
2023-03-28T14:36:08.881Z,9.54
2023-03-28T14:38:38.499Z,9.64
2023-03-28T14:41:13.755Z,9.39
2023-03-28T14:43:43.108Z,9.77
2023-03-28T14:46:12.309Z,9.90
2023-03-28T14:48:40.722Z,10.04
2023-03-28T14:51:09.587Z,9.99
2023-03-28T14:53:39.269Z,9.95
2023-03-28T14:56:10.520Z,9.49
2023-03-28T14:58:45.166Z,9.73
2023-03-28T15:01:24.153Z,9.85
2023-03-28T15:03:57.656Z,9.69
2023-03-28T15:06:30.612Z,9.75
2023-03-28T15:09:00.552Z,9.59
2023-03-28T15:12:03.193Z,9.62
2023-03-28T15:14:45.132Z,9.77
2023-03-28T15:17:17.222Z,10.13
2023-03-28T15:19:48.575Z,9.85
2023-03-28T15:22:24.262Z,9.79
2023-03-28T15:24:54.280Z,9.42
2023-03-28T15:27:24.768Z,9.27
2023-03-28T15:29:53.072Z,9.30
2023-03-28T15:32:22.766Z,9.17
2023-03-28T15:34:56.639Z,9.64
2023-03-28T15:37:25.831Z,9.93
2023-03-28T15:39:53.727Z,9.84
2023-03-28T15:42:35.452Z,9.68
2023-03-28T15:45:40.908Z,9.40
2023-03-28T15:48:16.197Z,9.48
2023-03-28T15:50:46.788Z,9.64
2023-03-28T15:53:17.844Z,9.39
2023-03-28T15:55:45.923Z,9.45
2023-03-28T15:58:14.416Z,9.32
2023-03-28T16:00:50.638Z,9.51
2023-03-28T16:03:34.467Z,9.39
2023-03-28T16:06:26.731Z,9.29
2023-03-28T16:09:13.203Z,9.22
2023-03-28T16:11:41.739Z,9.30
2023-03-28T16:14:13.868Z,9.18
2023-03-28T16:16:45.696Z,9.12
2023-03-28T16:19:22.312Z,9.21
2023-03-28T16:21:50.526Z,8.97
2023-03-28T16:24:19.741Z,8.91
2023-03-28T16:26:47.846Z,8.98
2023-03-28T16:29:16.093Z,9.01
2023-03-28T16:31:45.017Z,8.85
2023-03-28T16:34:16.727Z,8.91
2023-03-28T16:36:46.940Z,9.06
2023-03-28T16:39:21.757Z,9.09
2023-03-28T16:41:50.146Z,8.95
2023-03-28T16:44:20.938Z,8.70
2023-03-28T16:46:50.914Z,8.58
2023-03-28T16:49:18.810Z,8.77
2023-03-28T16:51:48.229Z,8.53
2023-03-28T16:54:17.939Z,8.67
2023-03-28T16:56:45.875Z,8.71
2023-03-28T16:59:13.819Z,8.60
2023-03-28T17:01:47.158Z,8.61
2023-03-28T17:04:18.861Z,8.40
2023-03-28T17:06:48.881Z,8.44
2023-03-28T17:09:16.809Z,8.25
2023-03-28T17:11:44.979Z,8.31
2023-03-28T17:14:13.104Z,8.19
2023-03-28T17:16:41.358Z,8.31
2023-03-28T17:19:09.317Z,8.46
2023-03-28T17:21:39.355Z,8.30
2023-03-28T17:24:11.508Z,8.39
2023-03-28T17:26:41.989Z,8.18
2023-03-28T17:29:11.954Z,8.21
2023-03-28T17:31:40.268Z,8.13
2023-03-28T17:34:08.490Z,8.06
2023-03-28T17:36:36.569Z,8.26
2023-03-28T17:39:04.662Z,7.93
2023-03-28T17:41:38.371Z,8.00
2023-03-28T17:44:10.540Z,7.88
2023-03-28T17:46:39.312Z,7.98
2023-03-28T17:49:08.565Z,7.85
2023-03-28T17:51:38.221Z,7.93
2023-03-28T17:54:08.330Z,7.88
2023-03-28T17:56:40.896Z,7.96
2023-03-28T17:59:10.795Z,7.84
2023-03-28T18:01:38.749Z,7.70
2023-03-28T18:04:07.026Z,7.65
2023-03-28T18:06:40.049Z,7.62
2023-03-28T18:09:08.263Z,7.62
2023-03-28T18:11:39.278Z,7.54
2023-03-28T18:14:09.210Z,7.62
2023-03-28T18:16:38.782Z,7.52
2023-03-28T18:19:06.925Z,7.48
2023-03-28T18:21:34.832Z,7.59
2023-03-28T18:24:03.032Z,7.64
2023-03-28T18:26:31.657Z,7.59
2023-03-28T18:29:00.901Z,7.49
2023-03-28T18:31:28.955Z,7.34
2023-03-28T18:33:57.787Z,7.41
2023-03-28T18:36:25.846Z,7.24
2023-03-28T18:38:55.995Z,7.28
2023-03-28T18:41:24.119Z,7.31
2023-03-28T18:43:52.446Z,7.26
2023-03-28T18:46:21.781Z,7.20
2023-03-28T18:48:50.480Z,7.32
2023-03-28T18:51:18.489Z,7.18
2023-03-28T18:53:48.999Z,7.25
2023-03-28T18:56:17.080Z,7.41
2023-03-28T18:58:50.181Z,7.20
2023-03-28T19:01:18.521Z,7.28
2023-03-28T19:03:47.965Z,7.28
2023-03-28T19:06:16.298Z,7.16
2023-03-28T19:08:44.959Z,7.26
2023-03-28T19:11:14.121Z,7.34
2023-03-28T19:13:42.523Z,7.20
2023-03-28T19:16:11.582Z,7.14
2023-03-28T19:18:40.192Z,7.13
2023-03-28T19:21:09.786Z,7.19
2023-03-28T19:23:37.980Z,7.21
2023-03-28T19:26:06.936Z,7.21
2023-03-28T19:28:35.194Z,7.16
2023-03-28T19:31:03.882Z,7.02
2023-03-28T19:33:31.856Z,7.10
2023-03-28T19:36:00.657Z,6.94
2023-03-28T19:38:30.877Z,6.81
2023-03-28T19:40:59.090Z,6.97
2023-03-28T19:43:27.116Z,6.90
2023-03-28T19:45:55.187Z,6.99
2023-03-28T19:48:23.071Z,6.87
2023-03-28T19:50:51.210Z,6.95
2023-03-28T19:53:19.561Z,6.71
2023-03-28T19:55:54.897Z,6.71
2023-03-28T19:58:23.404Z,6.69
2023-03-28T20:00:51.331Z,6.58
2023-03-28T20:03:19.340Z,6.61
2023-03-28T20:05:49.158Z,6.44
2023-03-28T20:08:18.374Z,6.47
2023-03-28T20:10:47.431Z,6.11
2023-03-28T20:13:17.016Z,6.21
2023-03-28T20:15:45.712Z,5.94
2023-03-28T20:18:15.728Z,5.84
2023-03-28T20:20:43.810Z,5.84
2023-03-28T20:23:12.730Z,5.82
2023-03-28T20:25:40.715Z,5.77
2023-03-28T20:28:10.684Z,5.69
2023-03-28T20:30:40.357Z,5.72
2023-03-28T20:33:08.328Z,5.61
2023-03-28T20:35:36.529Z,5.65
2023-03-28T20:38:04.558Z,5.49
2023-03-28T20:40:32.495Z,5.34
2023-03-28T20:43:01.875Z,5.33
2023-03-28T20:45:30.081Z,5.42
2023-03-28T20:48:06.274Z,5.41
2023-03-28T20:50:35.514Z,5.47
2023-03-28T20:53:05.995Z,5.26
2023-03-28T20:55:34.857Z,5.22
2023-03-28T20:58:03.068Z,5.42
2023-03-28T21:00:32.217Z,5.29
2023-03-28T21:03:03.477Z,5.33
2023-03-28T21:05:33.903Z,5.18
2023-03-28T21:08:09.594Z,5.11
2023-03-28T21:10:40.589Z,5.08
2023-03-28T21:13:16.450Z,5.11
2023-03-28T21:15:44.628Z,4.88
2023-03-28T21:18:14.202Z,4.87
2023-03-28T21:20:42.392Z,4.94
2023-03-28T21:23:10.446Z,5.03
2023-03-28T21:25:38.873Z,4.88
2023-03-28T21:28:07.148Z,4.89
2023-03-28T21:30:35.381Z,4.96
2023-03-28T21:33:04.002Z,4.70
2023-03-28T21:35:34.065Z,4.78
2023-03-28T21:38:02.573Z,4.87
2023-03-28T21:40:31.139Z,4.76
2023-03-28T21:42:59.400Z,4.68
2023-03-28T21:45:36.906Z,4.67
2023-03-28T21:48:06.294Z,4.80
2023-03-28T21:50:38.892Z,4.74
2023-03-28T21:53:07.191Z,4.71
2023-03-28T21:55:36.501Z,4.86
2023-03-28T21:58:04.799Z,4.70
2023-03-28T22:00:32.937Z,4.70
2023-03-28T22:03:00.978Z,4.83
2023-03-28T22:05:30.079Z,4.82
2023-03-28T22:07:59.731Z,4.79
2023-03-28T22:10:29.930Z,4.73
2023-03-28T22:12:59.504Z,4.52
2023-03-28T22:15:27.905Z,4.81
2023-03-28T22:17:58.228Z,4.72
2023-03-28T22:20:26.522Z,4.83
2023-03-28T22:22:54.604Z,4.86
2023-03-28T22:25:24.336Z,4.77
2023-03-28T22:27:52.904Z,4.75
2023-03-28T22:30:21.264Z,4.86
2023-03-28T22:32:49.370Z,4.81
2023-03-28T22:35:17.967Z,4.74
2023-03-28T22:37:46.294Z,4.80
2023-03-28T22:40:15.021Z,4.82
2023-03-28T22:42:45.271Z,4.77
2023-03-28T22:45:13.556Z,4.75
2023-03-28T22:47:42.217Z,4.75
2023-03-28T22:50:14.640Z,4.73
2023-03-28T22:52:42.971Z,4.76
2023-03-28T22:55:13.519Z,4.67
2023-03-28T22:57:42.116Z,4.72
2023-03-28T23:00:13.368Z,4.70
2023-03-28T23:02:41.943Z,4.74
2023-03-28T23:05:12.754Z,4.81
2023-03-28T23:07:41.724Z,4.64
2023-03-28T23:10:12.538Z,4.75
2023-03-28T23:12:40.415Z,4.66
2023-03-28T23:15:09.457Z,4.75
2023-03-28T23:17:38.893Z,4.69
2023-03-28T23:20:12.217Z,4.77
2023-03-28T23:22:40.304Z,4.67
2023-03-28T23:25:10.116Z,4.74
2023-03-28T23:27:38.030Z,4.73
2023-03-28T23:30:06.876Z,4.68
2023-03-28T23:32:34.864Z,4.68
2023-03-28T23:35:04.875Z,4.68
2023-03-28T23:37:34.505Z,4.57
2023-03-28T23:40:02.738Z,4.59
2023-03-28T23:42:31.000Z,4.61
2023-03-28T23:44:58.917Z,4.66
2023-03-28T23:47:27.111Z,4.59
2023-03-28T23:49:55.105Z,4.71
2023-03-28T23:52:24.503Z,4.57
2023-03-28T23:54:52.509Z,4.69
2023-03-28T23:57:20.591Z,4.62
2023-03-28T23:59:48.645Z,4.58
